createdAt,value
2017-02-28T00:00:02.432Z,7.98
2017-02-28T00:01:12.812Z,7.89
2017-02-28T00:02:23.195Z,7.91
2017-02-28T00:03:33.976Z,7.82
2017-02-28T00:04:44.377Z,7.86
2017-02-28T00:05:55.165Z,7.8
2017-02-28T00:07:05.999Z,7.71
2017-02-28T00:08:16.790Z,7.68
2017-02-28T00:09:27.575Z,7.68
2017-02-28T00:10:38.363Z,7.63
2017-02-28T00:11:49.138Z,7.63
2017-02-28T00:12:59.124Z,7.59
2017-02-28T00:14:09.508Z,7.61
2017-02-28T00:15:18.721Z,7.56
2017-02-28T00:16:29.130Z,7.54
2017-02-28T00:17:39.904Z,7.56
2017-02-28T00:18:50.276Z,7.55
2017-02-28T00:20:01.062Z,7.67
2017-02-28T00:21:11.103Z,7.56
2017-02-28T00:22:21.079Z,7.51
2017-02-28T00:23:31.450Z,7.59
2017-02-28T00:24:41.859Z,7.63
2017-02-28T00:25:52.250Z,7.58
2017-02-28T00:27:03.036Z,7.63
2017-02-28T00:28:13.034Z,7.61
2017-02-28T00:29:23.407Z,7.63
2017-02-28T00:30:33.798Z,7.67
2017-02-28T00:31:44.195Z,7.49
2017-02-28T00:32:54.579Z,7.52
2017-02-28T00:34:05.335Z,7.51
2017-02-28T00:35:16.111Z,7.51
2017-02-28T00:36:26.102Z,7.45
2017-02-28T00:37:35.295Z,7.52
2017-02-28T00:38:46.104Z,7.52
2017-02-28T00:39:56.901Z,7.47
2017-02-28T00:41:07.679Z,7.4
2017-02-28T00:42:18.066Z,7.41
2017-02-28T00:43:28.846Z,7.29
2017-02-28T00:44:39.224Z,7.39
2017-02-28T00:45:49.626Z,7.37
2017-02-28T00:47:00.416Z,7.34
2017-02-28T00:48:10.834Z,7.37
2017-02-28T00:49:21.602Z,7.36
2017-02-28T00:50:32.391Z,7.22
2017-02-28T00:51:43.155Z,7.27
2017-02-28T00:52:53.955Z,7.26
2017-02-28T00:54:04.355Z,7.3
2017-02-28T00:55:15.148Z,7.23
2017-02-28T00:56:25.921Z,7.27
2017-02-28T00:57:36.304Z,7.21
2017-02-28T00:58:46.713Z,7.27
2017-02-28T00:59:57.492Z,7.21
2017-02-28T01:01:07.508Z,7.16
2017-02-28T01:02:17.889Z,7.09
2017-02-28T01:03:28.680Z,7.11
2017-02-28T01:04:39.467Z,7.19
2017-02-28T01:05:50.264Z,7.03
2017-02-28T01:07:00.675Z,7
2017-02-28T01:08:11.283Z,7.05
2017-02-28T01:09:21.675Z,7.01
2017-02-28T01:10:32.453Z,6.95
2017-02-28T01:11:43.237Z,6.95
2017-02-28T01:12:53.640Z,7
2017-02-28T01:14:04.043Z,6.98
2017-02-28T01:15:14.057Z,7.01
2017-02-28T01:16:23.659Z,6.95
2017-02-28T01:17:34.058Z,6.9
2017-02-28T01:18:44.033Z,6.88
2017-02-28T01:19:54.018Z,6.93
2017-02-28T01:21:04.792Z,6.91
2017-02-28T01:22:15.607Z,6.85
2017-02-28T01:23:25.980Z,6.83
2017-02-28T01:24:36.762Z,6.83
2017-02-28T01:25:47.154Z,6.8
2017-02-28T01:26:57.937Z,6.88
2017-02-28T01:28:08.721Z,6.82
2017-02-28T01:29:19.485Z,6.85
2017-02-28T01:30:29.862Z,6.82
2017-02-28T01:31:39.849Z,6.8
2017-02-28T01:32:50.215Z,6.79
2017-02-28T01:34:00.596Z,6.85
2017-02-28T01:35:10.597Z,6.78
2017-02-28T01:36:21.371Z,6.76
2017-02-28T01:37:31.769Z,6.85
2017-02-28T01:38:42.572Z,6.82
2017-02-28T01:39:52.947Z,6.72
2017-02-28T01:41:02.936Z,6.75
2017-02-28T01:42:13.719Z,6.73
2017-02-28T01:43:24.495Z,6.7
2017-02-28T01:44:34.082Z,6.8
2017-02-28T01:45:44.844Z,6.72
2017-02-28T01:46:55.644Z,6.79
2017-02-28T01:48:06.427Z,6.68
2017-02-28T01:49:17.193Z,6.7
2017-02-28T01:50:27.964Z,6.75
2017-02-28T01:51:38.741Z,6.67
2017-02-28T01:52:49.123Z,6.68
2017-02-28T01:53:59.907Z,6.76
2017-02-28T01:55:10.683Z,6.82
2017-02-28T01:56:21.480Z,6.65
2017-02-28T01:57:32.266Z,6.76
2017-02-28T01:58:43.041Z,6.67
2017-02-28T01:59:53.429Z,6.64
2017-02-28T02:01:03.811Z,6.68
2017-02-28T02:02:13.783Z,6.68
2017-02-28T02:03:24.558Z,6.67
2017-02-28T02:04:35.331Z,6.7
2017-02-28T02:05:45.714Z,6.7
2017-02-28T02:06:56.501Z,6.68
2017-02-28T02:08:07.261Z,6.7
2017-02-28T02:09:18.028Z,6.61
2017-02-28T02:10:28.421Z,6.54
2017-02-28T02:11:39.221Z,6.57
2017-02-28T02:12:49.598Z,6.54
2017-02-28T02:13:59.987Z,6.46
2017-02-28T02:15:10.385Z,6.46
2017-02-28T02:16:20.845Z,6.46
2017-02-28T02:17:30.840Z,6.49
2017-02-28T02:18:41.235Z,6.49
2017-02-28T02:19:51.612Z,6.4
2017-02-28T02:21:02.413Z,6.31
2017-02-28T02:22:12.800Z,6.34
2017-02-28T02:23:23.588Z,6.37
2017-02-28T02:24:33.169Z,6.33
2017-02-28T02:25:43.574Z,6.31
2017-02-28T02:26:53.946Z,6.31
2017-02-28T02:28:04.331Z,6.43
2017-02-28T02:29:14.330Z,6.28
2017-02-28T02:30:25.129Z,6.37
2017-02-28T02:31:35.928Z,6.37
2017-02-28T02:32:46.328Z,6.28
2017-02-28T02:33:56.336Z,6.42
2017-02-28T02:35:06.731Z,6.37
2017-02-28T02:36:17.497Z,6.29
2017-02-28T02:37:28.302Z,6.37
2017-02-28T02:38:39.076Z,6.42
2017-02-28T02:39:49.862Z,6.36
2017-02-28T02:40:59.829Z,6.37
2017-02-28T02:42:10.601Z,6.33
2017-02-28T02:43:20.601Z,6.29
2017-02-28T02:44:30.576Z,6.29
2017-02-28T02:45:40.985Z,6.34
2017-02-28T02:46:51.006Z,6.34
2017-02-28T02:48:01.768Z,6.25
2017-02-28T02:49:12.149Z,6.31
2017-02-28T02:50:22.119Z,6.29
2017-02-28T02:51:32.896Z,6.18
2017-02-28T02:52:43.680Z,6.17
2017-02-28T02:53:54.457Z,6.1
2017-02-28T02:55:05.234Z,6.06
2017-02-28T02:56:15.644Z,6.17
2017-02-28T02:57:26.034Z,6.17
2017-02-28T02:58:36.418Z,6.15
2017-02-28T02:59:47.189Z,6.17
2017-02-28T03:00:57.578Z,6.06
2017-02-28T03:32:28.356Z,2.2
2017-02-28T03:33:38.737Z,2.18
2017-02-28T03:34:49.519Z,2.2
2017-02-28T03:36:00.151Z,2.16
2017-02-28T03:37:10.931Z,2.27
2017-02-28T03:38:21.317Z,2.47
2017-02-28T03:39:32.090Z,2.45
2017-02-28T03:40:42.053Z,2.7
2017-02-28T03:41:52.038Z,2.77
2017-02-28T03:43:02.436Z,3.03
2017-02-28T03:44:13.210Z,3.29
2017-02-28T03:45:23.993Z,3.39
2017-02-28T03:46:34.380Z,3.72
2017-02-28T03:47:44.793Z,3.89
2017-02-28T03:48:55.206Z,4.07
2017-02-28T03:50:05.966Z,4.29
2017-02-28T03:51:16.799Z,4.4
2017-02-28T03:52:27.592Z,4.51
2017-02-28T03:56:23.144Z,4.92
2017-02-28T03:57:33.152Z,5.05
2017-02-28T03:58:43.546Z,5.13
2017-02-28T03:59:53.919Z,5.3
2017-02-28T04:01:04.710Z,5.34
2017-02-28T04:02:15.080Z,5.41
2017-02-28T04:03:25.864Z,5.42
2017-02-28T04:04:36.650Z,5.52
2017-02-28T04:05:46.255Z,5.52
2017-02-28T04:06:56.633Z,5.59
2017-02-28T04:08:07.009Z,5.67
2017-02-28T04:09:17.402Z,5.63
2017-02-28T04:10:27.789Z,5.72
2017-02-28T04:11:38.181Z,5.72
2017-02-28T04:12:48.559Z,5.78
2017-02-28T04:13:59.320Z,5.92
2017-02-28T04:15:10.092Z,5.87
2017-02-28T04:16:20.884Z,5.91
2017-02-28T04:17:31.646Z,5.96
2017-02-28T04:18:42.436Z,5.89
2017-02-28T04:19:52.829Z,5.88
2017-02-28T04:21:03.252Z,5.96
2017-02-28T04:22:14.049Z,6.03
2017-02-28T04:23:24.434Z,6.06
2017-02-28T04:24:34.808Z,5.95
2017-02-28T04:25:45.594Z,6.09
2017-02-28T04:26:56.368Z,6.13
2017-02-28T04:28:05.960Z,6.1
2017-02-28T04:29:16.359Z,6.09
2017-02-28T04:30:26.738Z,6.14
2017-02-28T04:31:37.504Z,6.21
2017-02-28T04:32:47.897Z,6.05
2017-02-28T04:33:58.683Z,6.17
2017-02-28T04:35:09.103Z,6.21
2017-02-28T04:36:19.877Z,6.1
2017-02-28T04:37:30.663Z,6.2
2017-02-28T04:38:41.079Z,6.28
2017-02-28T04:39:51.485Z,6.25
2017-02-28T04:41:02.260Z,6.26
2017-02-28T04:42:12.252Z,6.25
2017-02-28T04:43:22.636Z,6.31
2017-02-28T04:44:33.421Z,6.31
2017-02-28T04:45:44.213Z,6.34
2017-02-28T04:46:55.009Z,6.39
2017-02-28T04:48:05.780Z,6.34
2017-02-28T04:49:16.155Z,6.49
2017-02-28T04:50:26.535Z,6.47
2017-02-28T04:51:36.521Z,6.49
2017-02-28T04:52:46.511Z,6.55
2017-02-28T04:53:57.311Z,6.51
2017-02-28T04:55:08.116Z,6.55
2017-02-28T04:56:18.509Z,6.55
2017-02-28T04:57:28.876Z,6.58
2017-02-28T04:58:39.664Z,6.55
2017-02-28T04:59:49.641Z,6.65
2017-02-28T05:01:00.430Z,6.7
2017-02-28T05:02:11.228Z,6.76
2017-02-28T05:03:22.009Z,6.78
2017-02-28T05:04:32.400Z,6.79
2017-02-28T05:05:42.389Z,6.85
2017-02-28T05:06:52.770Z,6.95
2017-02-28T05:08:03.170Z,7
2017-02-28T05:09:13.183Z,7.01
2017-02-28T05:10:23.546Z,6.95
2017-02-28T05:11:33.576Z,7.13
2017-02-28T05:12:44.365Z,7.08
2017-02-28T05:13:55.149Z,7.13
2017-02-28T05:15:05.913Z,7.21
2017-02-28T05:16:15.888Z,7.18
2017-02-28T05:17:26.681Z,7.11
2017-02-28T05:18:36.666Z,7.21
2017-02-28T05:19:46.660Z,7.18
2017-02-28T05:20:57.056Z,7.12
2017-02-28T05:22:07.863Z,7.16
2017-02-28T05:23:18.273Z,7.09
2017-02-28T05:24:28.662Z,7.05
2017-02-28T05:25:39.044Z,7.03
2017-02-28T05:26:49.826Z,7.15
2017-02-28T05:28:00.599Z,7.12
2017-02-28T05:29:10.194Z,7.15
2017-02-28T05:30:20.182Z,7.13
2017-02-28T05:31:30.977Z,7.13
2017-02-28T05:32:41.773Z,7.16
2017-02-28T05:33:52.584Z,7.11
2017-02-28T05:35:03.357Z,7.16
2017-02-28T05:36:14.142Z,7.19
2017-02-28T05:37:24.541Z,7.18
2017-02-28T05:38:35.352Z,7.18
2017-02-28T05:39:45.740Z,7.18
2017-02-28T05:40:55.725Z,7.12
2017-02-28T05:42:06.097Z,7.11
2017-02-28T05:43:16.905Z,7.11
2017-02-28T05:44:26.903Z,7.19
2017-02-28T05:45:36.498Z,7.23
2017-02-28T05:46:46.944Z,7.19
2017-02-28T05:47:57.711Z,7.31
2017-02-28T05:49:08.099Z,7.19
2017-02-28T05:50:18.871Z,7.3
2017-02-28T05:51:29.652Z,7.36
2017-02-28T05:52:40.029Z,7.39
2017-02-28T05:53:50.837Z,7.45
2017-02-28T05:55:01.609Z,7.51
2017-02-28T05:56:11.998Z,7.44
2017-02-28T05:57:22.777Z,7.41
2017-02-28T05:58:33.546Z,7.47
2017-02-28T05:59:44.299Z,7.52
2017-02-28T06:00:55.101Z,7.63
2017-02-28T06:02:05.873Z,7.61
2017-02-28T06:03:15.868Z,7.67
2017-02-28T06:04:26.645Z,7.74
2017-02-28T06:05:37.011Z,7.75
2017-02-28T06:06:47.819Z,7.74
2017-02-28T06:07:58.601Z,7.78
2017-02-28T06:09:08.589Z,7.82
2017-02-28T06:10:18.965Z,7.82
2017-02-28T06:11:29.356Z,7.91
2017-02-28T06:12:40.160Z,7.85
2017-02-28T06:13:50.561Z,7.85
2017-02-28T06:15:01.360Z,7.74
2017-02-28T06:16:12.149Z,7.78
2017-02-28T06:17:22.931Z,7.82
2017-02-28T06:18:33.717Z,7.78
2017-02-28T06:19:44.100Z,7.85
2017-02-28T06:20:54.521Z,7.89
2017-02-28T06:22:04.913Z,7.82
2017-02-28T06:23:15.698Z,7.73
2017-02-28T06:24:26.079Z,7.74
2017-02-28T06:25:36.881Z,7.74
2017-02-28T06:26:46.883Z,7.74
2017-02-28T06:27:57.654Z,7.63
2017-02-28T06:29:08.419Z,7.68
2017-02-28T06:30:19.219Z,7.58
2017-02-28T06:31:30.022Z,7.67
2017-02-28T06:32:40.422Z,7.61
2017-02-28T06:33:50.820Z,7.63
2017-02-28T06:35:01.595Z,7.56
2017-02-28T06:36:11.579Z,7.55
2017-02-28T06:37:21.983Z,7.59
2017-02-28T06:38:32.377Z,7.71
2017-02-28T06:39:43.152Z,7.64
2017-02-28T06:40:53.149Z,7.74
2017-02-28T06:42:03.917Z,7.7
2017-02-28T06:43:13.909Z,7.73
2017-02-28T06:44:24.700Z,7.67
2017-02-28T06:45:35.082Z,7.61
2017-02-28T06:46:44.667Z,7.61
2017-02-28T06:47:54.287Z,7.63
2017-02-28T06:49:04.686Z,7.67
2017-02-28T06:50:15.522Z,7.63
2017-02-28T06:51:26.296Z,7.75
2017-02-28T06:52:36.690Z,7.67
2017-02-28T06:53:47.073Z,7.73
2017-02-28T06:54:57.504Z,7.73
2017-02-28T06:56:07.537Z,7.82
2017-02-28T06:57:18.347Z,7.83
2017-02-28T06:58:29.146Z,7.85
2017-02-28T06:59:39.927Z,7.8
2017-02-28T07:00:50.716Z,7.88
2017-02-28T07:02:01.522Z,7.82
2017-02-28T07:03:12.299Z,7.86
2017-02-28T07:04:22.280Z,7.85
2017-02-28T07:05:33.058Z,7.93
2017-02-28T07:06:43.456Z,7.88
2017-02-28T07:07:53.840Z,8.09
2017-02-28T07:09:03.806Z,8.09
2017-02-28T07:10:14.188Z,8.17
2017-02-28T07:11:24.559Z,8.29
2017-02-28T07:12:35.341Z,8.42
2017-02-28T07:13:45.714Z,8.43
2017-02-28T07:14:56.514Z,8.49
2017-02-28T07:16:06.891Z,8.62
2017-02-28T07:17:17.304Z,8.67
2017-02-28T07:18:27.719Z,8.77
2017-02-28T07:19:38.112Z,8.82
2017-02-28T07:20:48.500Z,8.85
2017-02-28T07:21:58.893Z,8.89
2017-02-28T07:23:09.716Z,9.08
2017-02-28T07:24:20.514Z,9.21
2017-02-28T07:25:30.514Z,9.27
2017-02-28T07:26:41.292Z,9.38
2017-02-28T07:27:51.675Z,9.59
2017-02-28T07:29:01.659Z,9.64
2017-02-28T07:30:12.461Z,9.81
2017-02-28T07:31:23.262Z,9.95
2017-02-28T07:32:33.676Z,10.11
2017-02-28T07:33:43.681Z,10.18
2017-02-28T07:34:54.468Z,10.36
2017-02-28T07:36:04.060Z,10.47
2017-02-28T07:37:14.851Z,10.61
2017-02-28T07:38:24.863Z,10.83
2017-02-28T07:39:35.688Z,10.84
2017-02-28T07:40:46.062Z,10.92
2017-02-28T07:41:56.463Z,10.95
2017-02-28T07:43:07.233Z,11.06
2017-02-28T07:44:18.002Z,11.23
2017-02-28T07:45:28.408Z,11.23
2017-02-28T07:46:39.193Z,11.2
2017-02-28T07:47:50.006Z,11.18
2017-02-28T07:49:00.002Z,11.24
2017-02-28T07:50:10.776Z,11.3
2017-02-28T07:51:20.769Z,11.49
2017-02-28T07:52:31.779Z,11.64
2017-02-28T07:53:42.561Z,11.84
2017-02-28T07:54:52.946Z,11.86
2017-02-28T07:56:03.348Z,12.04
2017-02-28T07:57:13.731Z,12.15
2017-02-28T07:58:24.092Z,12.13
2017-02-28T07:59:34.491Z,12.18
2017-02-28T08:00:44.475Z,12.34
2017-02-28T08:01:55.273Z,12.37
2017-02-28T08:03:06.058Z,12.51
2017-02-28T08:04:16.839Z,12.51
2017-02-28T08:05:26.428Z,12.56
2017-02-28T08:06:37.205Z,12.61
2017-02-28T08:07:47.605Z,12.83
2017-02-28T08:08:57.191Z,12.83
2017-02-28T08:10:07.167Z,12.84
2017-02-28T08:11:17.951Z,12.73
2017-02-28T08:12:27.941Z,12.69
2017-02-28T08:13:38.739Z,12.73
2017-02-28T08:14:49.125Z,12.71
2017-02-28T08:15:59.545Z,12.65
2017-02-28T08:17:09.924Z,12.8
2017-02-28T08:18:20.716Z,12.86
2017-02-28T08:19:31.481Z,13.03
2017-02-28T08:20:41.855Z,13.02
2017-02-28T08:21:52.264Z,12.98
2017-02-28T08:23:02.667Z,12.98
2017-02-28T08:24:13.444Z,13.03
2017-02-28T08:25:23.850Z,13.1
2017-02-28T08:26:34.241Z,13.07
2017-02-28T08:27:44.641Z,13.11
2017-02-28T08:28:55.012Z,13.09
2017-02-28T08:30:05.787Z,13.1
2017-02-28T08:31:15.783Z,13.07
2017-02-28T08:32:25.012Z,13.11
2017-02-28T08:33:35.833Z,13.16
2017-02-28T08:34:46.619Z,13.31
2017-02-28T08:35:57.408Z,13.36
2017-02-28T08:37:07.407Z,13.44
2017-02-28T08:38:17.815Z,13.63
2017-02-28T08:39:27.814Z,13.62
2017-02-28T08:40:38.611Z,13.58
2017-02-28T08:41:49.034Z,13.87
2017-02-28T08:42:59.020Z,13.95
2017-02-28T08:44:09.422Z,14.19
2017-02-28T08:45:19.809Z,14.27
2017-02-28T08:46:30.215Z,14.41
2017-02-28T08:47:40.990Z,14.59
2017-02-28T08:48:50.582Z,14.7
2017-02-28T08:50:01.372Z,14.9
2017-02-28T08:51:11.747Z,15.07
2017-02-28T08:52:22.548Z,15.19
2017-02-28T08:53:32.565Z,15.27
2017-02-28T08:54:43.359Z,15.35
2017-02-28T08:55:53.787Z,15.38
2017-02-28T08:57:04.209Z,15.37
2017-02-28T08:58:14.618Z,15.43
2017-02-28T08:59:25.019Z,15.44
2017-02-28T09:00:35.022Z,15.51
2017-02-28T09:01:45.802Z,15.59
2017-02-28T09:02:56.185Z,15.74
2017-02-28T09:04:06.201Z,15.95
2017-02-28T09:05:16.597Z,16.17
2017-02-28T09:06:26.620Z,16.18
2017-02-28T09:07:37.053Z,16.3
2017-02-28T09:08:47.436Z,16.26
2017-02-28T09:09:57.804Z,16.22
2017-02-28T09:11:08.193Z,16.22
2017-02-28T09:12:18.567Z,16.34
2017-02-28T09:13:28.574Z,16.45
2017-02-28T09:14:38.591Z,16.55
2017-02-28T09:15:49.371Z,16.58
2017-02-28T09:17:00.195Z,16.66
2017-02-28T09:18:10.639Z,16.76
2017-02-28T09:19:20.633Z,16.85
2017-02-28T09:20:31.421Z,16.94
2017-02-28T09:21:41.807Z,16.97
2017-02-28T09:22:52.203Z,17.03
2017-02-28T09:24:03.005Z,16.91
2017-02-28T09:25:13.789Z,17.1
2017-02-28T09:26:24.580Z,17.36
2017-02-28T09:27:35.077Z,17.54
2017-02-28T09:28:45.995Z,17.68
2017-02-28T09:29:56.487Z,17.86
2017-02-28T09:31:07.320Z,18.03
2017-02-28T09:32:17.772Z,18.13
2017-02-28T09:33:28.661Z,18.17
2017-02-28T09:34:39.481Z,18.32
2017-02-28T09:35:50.331Z,18.13
2017-02-28T09:37:00.787Z,18.32
2017-02-28T09:38:11.853Z,18.26
2017-02-28T09:39:21.886Z,18.16
2017-02-28T09:40:32.748Z,18.16
2017-02-28T09:41:42.733Z,18.06
2017-02-28T09:42:52.778Z,17.98
2017-02-28T09:44:03.581Z,17.77
2017-02-28T09:45:13.985Z,17.68
2017-02-28T09:46:24.365Z,17.69
2017-02-28T09:47:34.377Z,17.71
2017-02-28T09:48:44.782Z,17.83
2017-02-28T09:49:55.608Z,17.88
2017-02-28T09:51:06.016Z,17.95
2017-02-28T09:52:16.787Z,18.08
2017-02-28T09:53:27.601Z,18.27
2017-02-28T09:54:38.016Z,18.27
2017-02-28T09:55:48.804Z,18.17
2017-02-28T09:56:59.598Z,18.17
2017-02-28T09:58:10.426Z,18.19
2017-02-28T09:59:20.832Z,18.11
2017-02-28T10:00:31.237Z,18.05
2017-02-28T10:01:42.050Z,18.08
2017-02-28T10:02:52.504Z,18.13
2017-02-28T10:04:03.284Z,18.03
2017-02-28T10:05:13.689Z,18.02
2017-02-28T10:06:24.489Z,18.05
2017-02-28T10:07:34.888Z,18.11
2017-02-28T10:08:45.286Z,17.96
2017-02-28T10:09:54.548Z,18.01
2017-02-28T10:11:04.558Z,18.05
2017-02-28T10:12:14.939Z,17.95
2017-02-28T10:13:25.349Z,17.87
2017-02-28T10:14:35.797Z,17.73
2017-02-28T10:15:46.205Z,17.69
2017-02-28T10:16:56.615Z,17.63
2017-02-28T10:18:07.014Z,17.76
2017-02-28T10:19:17.820Z,17.79
2017-02-28T10:20:28.642Z,17.8
2017-02-28T10:21:38.673Z,17.83
2017-02-28T10:22:49.471Z,17.81
2017-02-28T10:24:00.319Z,17.79
2017-02-28T10:25:10.707Z,17.8
2017-02-28T10:26:21.494Z,17.6
2017-02-28T10:27:32.321Z,17.4
2017-02-28T10:28:42.782Z,17.35
2017-02-28T10:29:52.820Z,17.38
2017-02-28T10:31:02.887Z,17.3
2017-02-28T10:32:13.743Z,17.21
2017-02-28T10:33:23.780Z,17.18
2017-02-28T10:34:34.286Z,17.05
2017-02-28T10:35:44.719Z,17.03
2017-02-28T10:36:55.544Z,17.07
2017-02-28T10:38:06.423Z,17.06
2017-02-28T10:39:17.268Z,17.06
2017-02-28T10:40:28.118Z,17.1
2017-02-28T10:41:38.977Z,17.12
2017-02-28T10:42:49.433Z,17.15
2017-02-28T10:44:00.297Z,17.15
2017-02-28T10:45:11.372Z,17.06
2017-02-28T10:46:21.812Z,17.07
2017-02-28T10:47:32.604Z,17.17
2017-02-28T10:48:43.014Z,17.21
2017-02-28T10:49:53.813Z,17.39
2017-02-28T10:51:04.261Z,17.46
2017-02-28T10:52:15.049Z,17.54
2017-02-28T10:53:25.897Z,17.55
2017-02-28T10:54:36.312Z,17.54
2017-02-28T10:55:46.721Z,17.62
2017-02-28T10:56:57.516Z,17.74
2017-02-28T10:58:08.310Z,17.76
2017-02-28T10:59:19.102Z,17.95
2017-02-28T11:00:29.525Z,17.94
2017-02-28T11:01:39.942Z,17.98
2017-02-28T11:02:49.549Z,18.05
2017-02-28T11:04:00.388Z,18.06
2017-02-28T11:05:10.797Z,18.13
2017-02-28T11:06:21.200Z,18.21
2017-02-28T11:07:31.589Z,18.21
2017-02-28T11:08:42.390Z,18.31
2017-02-28T11:09:52.807Z,18.42
2017-02-28T11:11:03.223Z,18.57
2017-02-28T11:12:14.033Z,18.5
2017-02-28T11:13:24.862Z,18.54
2017-02-28T11:14:35.264Z,18.5
2017-02-28T11:15:45.276Z,18.59
2017-02-28T11:16:55.710Z,18.57
2017-02-28T11:18:06.133Z,18.66
2017-02-28T11:19:16.543Z,18.71
2017-02-28T11:20:27.361Z,18.69
2017-02-28T11:21:37.751Z,18.66
2017-02-28T11:22:48.530Z,18.61
2017-02-28T11:23:59.327Z,18.71
2017-02-28T11:25:09.719Z,18.78
2017-02-28T11:26:20.511Z,18.84
2017-02-28T11:27:31.335Z,18.84
2017-02-28T11:28:41.344Z,18.82
2017-02-28T11:29:52.177Z,18.96
2017-02-28T11:31:01.783Z,18.94
2017-02-28T11:32:12.601Z,18.93
2017-02-28T11:33:23.015Z,18.94
2017-02-28T11:34:33.453Z,18.97
2017-02-28T11:35:43.871Z,19.06
2017-02-28T11:36:54.715Z,19.1
2017-02-28T11:38:05.514Z,19.17
2017-02-28T11:39:16.314Z,19.19
2017-02-28T11:40:27.110Z,19.23
2017-02-28T11:41:37.513Z,19.24
2017-02-28T11:42:47.535Z,19.31
2017-02-28T11:43:57.531Z,19.38
2017-02-28T11:45:08.365Z,19.31
2017-02-28T11:46:19.145Z,19.31
2017-02-28T11:47:29.976Z,19.23
2017-02-28T11:48:40.789Z,19.23
2017-02-28T11:49:51.590Z,19.09
2017-02-28T11:51:02.019Z,19.09
2017-02-28T11:52:12.443Z,19.06
2017-02-28T11:53:23.253Z,18.94
2017-02-28T11:54:33.253Z,18.96
2017-02-28T11:55:43.895Z,18.96
2017-02-28T11:56:53.954Z,18.94
2017-02-28T11:58:04.759Z,19.06
2017-02-28T11:59:15.543Z,19.13
2017-02-28T12:00:25.973Z,19.17
2017-02-28T12:01:36.401Z,19.13
2017-02-28T12:02:46.412Z,19.17
2017-02-28T12:03:56.817Z,19.19
2017-02-28T12:05:07.196Z,19.23
2017-02-28T12:06:17.629Z,19.15
2017-02-28T12:07:28.441Z,19.06
2017-02-28T12:08:39.228Z,18.97
2017-02-28T12:09:50.030Z,18.96
2017-02-28T12:11:00.812Z,18.89
2017-02-28T12:12:10.800Z,18.87
2017-02-28T12:13:21.597Z,18.76
2017-02-28T12:14:31.996Z,18.71
2017-02-28T12:15:42.805Z,18.66
2017-02-28T12:16:53.627Z,18.57
2017-02-28T12:18:03.633Z,18.65
2017-02-28T12:19:13.638Z,18.56
2017-02-28T12:20:24.441Z,18.59
2017-02-28T12:21:34.876Z,18.54
2017-02-28T12:22:45.661Z,18.49
2017-02-28T12:23:56.048Z,18.42
2017-02-28T12:25:06.848Z,18.34
2017-02-28T12:26:17.296Z,18.29
2017-02-28T12:27:27.696Z,18.2
2017-02-28T12:28:38.079Z,18.2
2017-02-28T12:29:48.465Z,18.14
2017-02-28T12:30:58.892Z,18.16
2017-02-28T12:32:09.292Z,18.2
2017-02-28T12:33:18.545Z,18.11
2017-02-28T12:34:28.945Z,18.16
2017-02-28T12:35:39.348Z,18.19
2017-02-28T12:36:49.361Z,18.11
2017-02-28T12:38:00.146Z,18.2
2017-02-28T12:39:10.949Z,18.16
2017-02-28T12:40:21.361Z,18.19
2017-02-28T12:41:31.781Z,18.2
2017-02-28T12:42:42.192Z,18.19
2017-02-28T12:43:52.606Z,18.13
2017-02-28T12:45:03.405Z,18.31
2017-02-28T12:46:13.806Z,18.39
2017-02-28T12:47:24.205Z,18.49
2017-02-28T12:48:34.625Z,18.45
2017-02-28T12:49:45.462Z,18.42
2017-02-28T12:50:55.903Z,18.47
2017-02-28T12:52:06.306Z,18.49
2017-02-28T12:53:17.118Z,18.54
2017-02-28T12:54:27.565Z,18.59
2017-02-28T12:55:37.968Z,18.6
2017-02-28T12:56:47.970Z,18.54
2017-02-28T12:57:58.772Z,18.68
2017-02-28T12:59:09.767Z,18.65
2017-02-28T13:00:19.768Z,18.66
2017-02-28T13:01:29.817Z,18.68
2017-02-28T13:02:40.596Z,18.75
2017-02-28T13:03:51.000Z,18.86
2017-02-28T13:05:01.005Z,18.87
2017-02-28T13:06:11.403Z,18.81
2017-02-28T13:07:21.815Z,18.86
2017-02-28T13:08:32.610Z,18.91
2017-02-28T13:09:43.391Z,18.86
2017-02-28T13:10:53.786Z,18.96
2017-02-28T13:12:04.200Z,19.12
2017-02-28T13:13:15.012Z,19.15
2017-02-28T13:14:25.801Z,19.05
2017-02-28T13:15:36.242Z,19.07
2017-02-28T13:16:46.640Z,18.96
2017-02-28T13:17:57.458Z,19.02
2017-02-28T13:19:07.876Z,18.97
2017-02-28T13:20:17.494Z,19.1
2017-02-28T13:21:27.898Z,19.09
2017-02-28T13:22:38.680Z,19.23
2017-02-28T13:23:49.061Z,19.52
2017-02-28T13:24:59.467Z,19.64
2017-02-28T13:26:10.263Z,19.78
2017-02-28T13:27:20.702Z,19.85
2017-02-28T13:28:31.495Z,19.9
2017-02-28T13:29:41.930Z,19.86
2017-02-28T13:30:52.750Z,19.8
2017-02-28T13:32:03.159Z,19.71
2017-02-28T13:33:13.964Z,19.67
2017-02-28T13:34:24.386Z,19.67
2017-02-28T13:35:34.788Z,19.65
2017-02-28T13:36:45.636Z,19.65
2017-02-28T13:37:56.425Z,19.57
2017-02-28T13:39:06.834Z,19.55
2017-02-28T13:40:17.683Z,19.42
2017-02-28T13:41:28.108Z,19.43
2017-02-28T13:42:38.914Z,19.5
2017-02-28T13:43:49.333Z,19.6
2017-02-28T13:44:59.955Z,19.52
2017-02-28T13:46:10.771Z,19.5
2017-02-28T13:47:21.155Z,19.37
2017-02-28T13:48:31.575Z,19.31
2017-02-28T13:49:42.373Z,19.05
2017-02-28T13:50:53.200Z,19.06
2017-02-28T13:52:03.996Z,18.84
2017-02-28T13:53:14.812Z,18.78
2017-02-28T13:54:25.241Z,18.57
2017-02-28T13:55:36.063Z,18.42
2017-02-28T13:56:46.068Z,18.36
2017-02-28T13:57:56.875Z,18.19
2017-02-28T13:59:07.309Z,18.17
2017-02-28T14:00:18.097Z,18.05
2017-02-28T14:01:28.919Z,18.02
2017-02-28T14:02:39.713Z,17.99
2017-02-28T14:03:49.727Z,17.81
2017-02-28T14:04:59.751Z,17.79
2017-02-28T14:06:10.135Z,17.74
2017-02-28T14:07:20.927Z,17.69
2017-02-28T14:08:30.932Z,17.68
2017-02-28T14:09:41.763Z,17.71
2017-02-28T14:10:51.433Z,17.63
2017-02-28T14:12:01.844Z,17.52
2017-02-28T14:13:12.249Z,17.42
2017-02-28T14:14:22.287Z,17.47
2017-02-28T14:15:32.345Z,17.42
2017-02-28T14:16:42.757Z,17.46
2017-02-28T14:17:53.153Z,17.38
2017-02-28T14:19:03.187Z,17.27
2017-02-28T14:20:13.584Z,17.1
2017-02-28T14:21:24.386Z,17.12
2017-02-28T14:22:35.180Z,17
2017-02-28T14:23:44.798Z,16.88
2017-02-28T14:24:55.202Z,16.81
2017-02-28T14:26:05.621Z,16.76
2017-02-28T14:27:16.437Z,16.76
2017-02-28T14:28:27.245Z,16.81
2017-02-28T14:29:37.628Z,16.85
2017-02-28T14:30:48.029Z,16.97
2017-02-28T14:31:58.864Z,16.99
2017-02-28T14:33:09.288Z,17.06
2017-02-28T14:34:20.086Z,17.06
2017-02-28T14:35:30.509Z,17.12
2017-02-28T14:36:40.907Z,17.18
2017-02-28T14:37:51.322Z,17.18
2017-02-28T14:39:01.701Z,17.05
2017-02-28T14:40:12.093Z,17.13
2017-02-28T14:41:22.526Z,17.15
2017-02-28T14:42:32.945Z,17.09
2017-02-28T14:43:43.736Z,17.15
2017-02-28T14:44:54.128Z,17.1
2017-02-28T14:46:04.174Z,17.07
2017-02-28T14:47:14.590Z,16.99
2017-02-28T14:48:25.028Z,16.97
2017-02-28T14:49:35.824Z,16.9
2017-02-28T14:50:46.617Z,16.91
2017-02-28T14:51:57.014Z,16.88
2017-02-28T14:53:07.403Z,16.87
2017-02-28T14:54:17.801Z,16.77
2017-02-28T14:55:28.582Z,16.69
2017-02-28T14:56:38.995Z,16.65
2017-02-28T14:57:49.437Z,16.58
2017-02-28T14:58:59.876Z,16.58
2017-02-28T15:00:10.680Z,16.57
2017-02-28T15:01:21.512Z,16.48
2017-02-28T15:02:32.319Z,16.37
2017-02-28T15:03:43.128Z,16.34
2017-02-28T15:04:53.196Z,16.26
2017-02-28T15:06:03.972Z,16.13
2017-02-28T15:07:14.379Z,16.16
2017-02-28T15:08:24.781Z,15.99
2017-02-28T15:09:35.212Z,15.86
2017-02-28T15:10:45.626Z,15.8
2017-02-28T15:11:56.427Z,15.63
2017-02-28T15:13:06.829Z,15.58
2017-02-28T15:14:16.835Z,15.63
2017-02-28T15:15:27.243Z,15.47
2017-02-28T15:16:36.878Z,15.52
2017-02-28T15:17:46.907Z,15.45
2017-02-28T15:18:57.734Z,15.49
2017-02-28T15:20:07.790Z,15.41
2017-02-28T15:21:18.609Z,15.34
2017-02-28T15:22:28.662Z,15.34
2017-02-28T15:23:39.096Z,15.25
2017-02-28T15:24:49.478Z,15.25
2017-02-28T15:26:00.288Z,15.13
2017-02-28T15:27:11.090Z,15.13
2017-02-28T15:28:21.890Z,15.02
2017-02-28T15:29:32.728Z,15.01
2017-02-28T15:30:43.534Z,15.04
2017-02-28T15:31:53.942Z,14.93
2017-02-28T15:33:04.334Z,14.85
2017-02-28T15:34:14.713Z,14.77
2017-02-28T15:35:25.106Z,14.71
2017-02-28T15:36:35.927Z,14.83
2017-02-28T15:37:46.735Z,14.7
2017-02-28T15:38:57.535Z,14.74
2017-02-28T15:40:07.944Z,14.69
2017-02-28T15:41:18.331Z,14.51
2017-02-28T15:42:29.130Z,14.61
2017-02-28T15:43:39.963Z,14.6
2017-02-28T15:44:50.755Z,14.57
2017-02-28T15:46:01.163Z,14.51
2017-02-28T15:47:11.969Z,14.53
2017-02-28T15:48:21.982Z,14.45
2017-02-28T15:49:32.009Z,14.33
2017-02-28T15:50:42.795Z,14.36
2017-02-28T15:51:53.591Z,14.24
2017-02-28T15:53:04.384Z,14.2
2017-02-28T15:54:15.218Z,14.19
2017-02-28T15:55:25.644Z,14.06
2017-02-28T15:56:36.468Z,14.08